Time;durP1;ratioP1;P1;durP2;ratioP2;P2;SDS_P1;SDS_P2;PMS_P1;PMS_P2;Temp;Humidity;BMP_temperature;BMP_pressure;BME280_temperature;BME280_humidity;BME280_pressure;Samples;Min_cycle;Max_cycle;Signal;HPM_P1;HPM_P2
2022/10/06 00:00:46;;;;;;;2.50;2.28;;;;;;;8.79;78.82;99543.78;6231070;22;20012;-74
2022/10/06 00:03:11;;;;;;;2.40;2.08;;;;;;;8.79;78.77;99549.97;6232147;22;20023;-74
2022/10/06 00:05:36;;;;;;;7.95;2.30;;;;;;;8.79;78.70;99547.31;6208010;22;20063;-75
2022/10/06 00:08:01;;;;;;;4.18;1.98;;;;;;;8.79;79.07;99544.66;6230986;22;20019;-73
2022/10/06 00:10:26;;;;;;;3.20;2.40;;;;;;;8.80;78.83;99549.00;6231259;22;20098;-73
2022/10/06 00:12:51;;;;;;;2.92;2.38;;;;;;;8.79;78.34;99549.09;6232164;22;20077;-70
2022/10/06 00:15:23;;;;;;;4.60;2.67;;;;;;;8.83;78.72;99546.13;6228810;22;20015;-69
2022/10/06 00:17:48;;;;;;;2.60;2.28;;;;;;;8.80;78.71;99543.69;6229227;22;20022;-68
2022/10/06 00:20:13;;;;;;;2.35;2.15;;;;;;;8.81;78.85;99539.19;6230507;22;20073;-70
2022/10/06 00:22:41;;;;;;;3.47;2.53;;;;;;;8.82;78.95;99539.09;6230966;22;20023;-70
2022/10/06 00:25:08;;;;;;;3.53;3.03;;;;;;;8.83;78.85;99538.16;6230987;22;20118;-72
2022/10/06 00:27:39;;;;;;;3.22;2.38;;;;;;;8.84;78.57;99553.16;6230722;22;20338;-70
2022/10/06 00:30:07;;;;;;;5.60;3.03;;;;;;;8.83;78.55;99548.78;6228354;22;20089;-70
2022/10/06 00:32:31;;;;;;;3.75;3.35;;;;;;;8.83;78.66;99545.28;6203230;22;20012;-66
2022/10/06 00:34:58;;;;;;;4.25;3.47;;;;;;;8.84;78.66;99549.63;6228807;22;20026;-65
2022/10/06 00:37:23;;;;;;;7.80;4.15;;;;;;;8.86;78.49;99556.56;6228264;22;20095;-67
2022/10/06 00:39:48;;;;;;;5.18;3.15;;;;;;;8.86;78.86;99556.56;6227368;22;20015;-68
2022/10/06 00:42:22;;;;;;;6.40;4.13;;;;;;;8.94;78.84;99558.72;6227631;22;20027;-67
2022/10/06 00:44:48;;;;;;;3.80;3.28;;;;;;;8.91;78.80;99548.31;6228605;22;20069;-65
2022/10/06 00:47:13;;;;;;;4.82;3.38;;;;;;;8.92;79.09;99552.63;6230051;22;20042;-67
2022/10/06 00:49:38;;;;;;;3.90;2.25;;;;;;;8.91;78.79;99559.78;6232801;22;20018;-66
2022/10/06 00:52:08;;;;;;;3.55;2.78;;;;;;;8.92;78.71;99550.84;6231685;22;20093;-66
2022/10/06 00:54:34;;;;;;;5.13;2.83;;;;;;;8.92;78.71;99550.84;6227346;22;20202;-67
2022/10/06 00:57:00;;;;;;;2.75;2.50;;;;;;;8.92;78.20;99552.63;6228973;22;20466;-68
2022/10/06 00:59:24;;;;;;;4.28;3.25;;;;;;;8.93;78.36;99543.72;6228739;22;20011;-68
2022/10/06 01:02:04;;;;;;;3.47;2.65;;;;;;;9.00;78.93;99542.38;6229112;22;20024;-70
2022/10/06 01:04:32;;;;;;;2.88;2.53;;;;;;;8.94;78.54;99548.06;6201430;22;20380;-69
2022/10/06 01:06:59;;;;;;;3.47;2.70;;;;;;;8.93;78.44;99539.25;6227242;22;20023;-70
2022/10/06 01:09:24;;;;;;;3.28;2.63;;;;;;;8.92;78.30;99547.31;6228719;22;20098;-71
2022/10/06 01:11:52;;;;;;;3.85;2.70;;;;;;;8.92;78.15;99545.50;6228762;22;20097;-69
2022/10/06 01:14:19;;;;;;;4.57;3.15;;;;;;;8.87;78.09;99544.97;6229788;22;20012;-70
2022/10/06 01:16:50;;;;;;;4.80;3.00;;;;;;;8.87;78.12;99549.44;6235412;22;20042;-69
2022/10/06 01:19:36;;;;;;;3.78;2.80;;;;;;;8.92;78.49;99553.50;6238576;22;20451;-69
2022/10/06 01:22:04;;;;;;;5.70;3.50;;;;;;;8.88;78.52;99546.69;6227760;22;20026;-68
2022/10/06 01:24:33;;;;;;;7.82;3.65;;;;;;;8.87;78.40;99549.44;6202875;22;20339;-69
2022/10/06 01:27:00;;;;;;;5.43;3.33;;;;;;;8.88;78.61;99548.50;6227714;22;20354;-71
2022/10/06 01:29:24;;;;;;;4.10;3.15;;;;;;;8.88;78.57;99560.00;6227511;22;20054;-71
2022/10/06 01:31:49;;;;;;;5.20;3.17;;;;;;;8.88;78.46;99552.00;6227829;22;20020;-70
2022/10/06 01:34:14;;;;;;;5.47;2.92;;;;;;;8.88;78.79;99552.00;6228895;22;20019;-69
2022/10/06 01:36:40;;;;;;;4.65;3.35;;;;;;;8.89;78.49;99551.06;6229348;22;20020;-69
2022/10/06 01:39:05;;;;;;;5.72;3.10;;;;;;;8.90;78.41;99544.78;6227654;22;20127;-69
2022/10/06 01:41:32;;;;;;;5.60;3.25;;;;;;;8.90;78.45;99544.78;6228673;22;20102;-69
2022/10/06 01:43:57;;;;;;;3.80;3.05;;;;;;;8.91;78.47;99542.97;6227653;22;20022;-69
2022/10/06 01:46:22;;;;;;;5.45;3.38;;;;;;;8.88;78.06;99544.03;6225682;22;20019;-70
2022/10/06 01:48:46;;;;;;;4.20;3.05;;;;;;;8.87;78.23;99547.63;6197381;22;20015;-71
2022/10/06 01:51:15;;;;;;;7.50;3.45;;;;;;;8.86;78.41;99551.25;6196257;22;20015;-73
2022/10/06 01:53:40;;;;;;;6.40;3.38;;;;;;;8.84;78.55;99547.84;6226037;22;20023;-70
2022/10/06 01:56:04;;;;;;;4.47;2.92;;;;;;;8.83;78.44;99546.13;6227873;22;20094;-67
2022/10/06 01:58:29;;;;;;;3.15;2.80;;;;;;;8.83;78.37;99550.59;6227850;22;20095;-72
2022/10/06 02:00:54;;;;;;;5.43;3.45;;;;;;;8.78;78.35;99553.56;6203212;22;20090;-71
2022/10/06 02:03:18;;;;;;;3.75;2.97;;;;;;;8.76;78.53;99541.31;6229556;22;20026;-68
2022/10/06 02:05:43;;;;;;;5.32;3.13;;;;;;;8.78;78.88;99550.06;6240330;22;20445;-67
2022/10/06 02:08:09;;;;;;;4.47;3.40;;;;;;;8.79;79.26;99544.66;6227359;22;20026;-68
2022/10/06 02:10:34;;;;;;;4.65;3.53;;;;;;;8.80;79.11;99540.19;6232781;22;20020;-68
2022/10/06 02:13:03;;;;;;;5.45;3.40;;;;;;;8.79;78.67;99544.66;6230583;22;20016;-67
2022/10/06 02:15:31;;;;;;;6.45;4.18;;;;;;;8.76;78.95;99534.22;6227402;22;20025;-69
2022/10/06 02:17:56;;;;;;;9.48;4.53;;;;;;;8.78;79.16;99532.31;6201795;22;20015;-66
2022/10/06 02:20:24;;;;;;;5.05;3.65;;;;;;;8.81;79.25;99537.41;6228438;22;20418;-67
2022/10/06 02:22:49;;;;;;;5.65;4.07;;;;;;;8.81;79.10;99540.06;6228808;22;20407;-68
2022/10/06 02:25:16;;;;;;;6.63;4.40;;;;;;;8.80;79.10;99541.03;6201783;22;20043;-67
2022/10/06 02:27:40;;;;;;;6.30;4.65;;;;;;;8.81;79.07;99542.72;6226573;22;20022;-68
2022/10/06 02:30:08;;;;;;;6.47;4.25;;;;;;;8.82;79.25;99543.56;6226792;22;20081;-69
2022/10/06 02:32:39;;;;;;;4.30;3.90;;;;;;;8.82;78.96;99552.41;6226463;22;20022;-69
2022/10/06 02:35:06;;;;;;;5.85;3.92;;;;;;;8.84;78.94;99549.63;6226373;22;20459;-68
2022/10/06 02:37:32;;;;;;;7.95;4.10;;;;;;;8.84;79.03;99554.97;6226487;22;20015;-69
2022/10/06 02:39:58;;;;;;;4.63;3.75;;;;;;;8.80;78.79;99556.13;6226573;22;20051;-67
2022/10/06 02:42:23;;;;;;;6.78;3.80;;;;;;;8.80;78.77;99562.31;6228032;22;20066;-68
2022/10/06 02:44:50;;;;;;;10.15;3.65;;;;;;;8.72;78.72;99565.44;6227214;22;20016;-68
2022/10/06 02:47:16;;;;;;;5.05;3.65;;;;;;;8.72;79.09;99565.44;6226398;22;20019;-71
2022/10/06 02:49:40;;;;;;;5.75;4.45;;;;;;;8.75;78.94;99569.72;6201054;22;20016;-70
2022/10/06 02:52:05;;;;;;;6.47;3.95;;;;;;;8.79;79.07;99559.75;6228251;22;20803;-68
2022/10/06 02:54:30;;;;;;;7.35;4.72;;;;;;;8.78;79.14;99558.88;6229567;22;20015;-68
2022/10/06 02:56:55;;;;;;;5.60;4.20;;;;;;;8.80;79.37;99567.63;6228706;22;20026;-68
2022/10/06 02:59:20;;;;;;;8.25;4.45;;;;;;;8.77;78.94;99561.63;6229036;22;20034;-70
2022/10/06 03:01:45;;;;;;;6.30;4.28;;;;;;;8.76;79.37;99575.88;6231518;22;20019;-69
2022/10/06 03:04:13;;;;;;;7.97;3.97;;;;;;;8.74;78.77;99574.16;6229103;22;20446;-68
2022/10/06 03:06:40;;;;;;;5.70;4.32;;;;;;;8.76;79.01;99602.47;6202926;22;20332;-68
2022/10/06 03:09:18;;;;;;;5.13;4.45;;;;;;;8.79;79.25;99581.84;6202797;22;20015;-69
2022/10/06 03:11:42;;;;;;;8.18;4.63;;;;;;;8.82;79.00;99568.34;6228699;22;20528;-70
2022/10/06 03:14:11;;;;;;;7.07;4.43;;;;;;;8.83;79.36;99580.69;6228665;22;20011;-70
2022/10/06 03:16:38;;;;;;;8.63;4.95;;;;;;;8.86;79.22;99567.19;6228771;22;20027;-70
2022/10/06 03:19:06;;;;;;;6.95;4.35;;;;;;;8.89;79.43;99572.31;6230692;22;20016;-70
2022/10/06 03:21:34;;;;;;;5.88;4.30;;;;;;;8.93;79.41;99568.50;6203817;22;20114;-68
2022/10/06 03:23:59;;;;;;;10.15;5.47;;;;;;;8.93;79.15;99567.63;6235849;22;20030;-69
2022/10/06 03:26:28;;;;;;;10.15;5.78;;;;;;;8.97;79.17;99569.16;6212020;22;20011;-70
2022/10/06 03:28:54;;;;;;;7.93;5.93;;;;;;;8.95;79.18;99565.72;6230663;22;20011;-71
2022/10/06 03:31:19;;;;;;;6.40;4.90;;;;;;;8.97;79.02;99563.84;6229547;22;20031;-70
2022/10/06 03:33:44;;;;;;;7.43;5.03;;;;;;;8.99;79.13;99568.09;6229371;22;20386;-71
2022/10/06 03:36:11;;;;;;;9.48;5.43;;;;;;;9.03;79.20;99572.25;6229205;22;20022;-71
2022/10/06 03:38:37;;;;;;;8.70;5.72;;;;;;;9.02;79.04;99567.91;6228858;22;20065;-71
2022/10/06 03:41:06;;;;;;;7.10;4.65;;;;;;;9.02;78.81;99573.22;6230718;22;20023;-72
2022/10/06 03:43:31;;;;;;;6.95;4.97;;;;;;;9.03;78.84;99571.38;6228797;22;20015;-70
2022/10/06 03:45:59;;;;;;;10.98;6.65;;;;;;;9.00;78.50;99575.13;6203670;22;20023;-70
2022/10/06 03:48:26;;;;;;;13.10;5.35;;;;;;;9.00;78.86;99580.44;6229404;22;20068;-71
2022/10/06 03:50:59;;;;;;;8.65;5.50;;;;;;;9.02;78.81;99570.56;6230722;22;20016;-71
2022/10/06 03:53:27;;;;;;;9.02;5.70;;;;;;;9.00;78.65;99574.28;6229544;22;20011;-70
2022/10/06 03:56:28;;;;;;;8.65;5.50;;;;;;;9.14;79.07;99576.03;6203509;22;20434;-71
2022/10/06 03:58:56;;;;;;;8.00;5.13;;;;;;;9.07;79.05;99570.25;6058704;23;20048;-70
2022/10/06 04:01:29;;;;;;;8.75;5.70;;;;;;;9.02;78.89;99578.53;6107505;23;20488;-71
2022/10/06 04:03:55;;;;;;;7.07;5.10;;;;;;;9.00;79.22;99579.59;6082997;23;20019;-71
2022/10/06 04:06:22;;;;;;;8.60;5.55;;;;;;;9.02;79.18;99577.69;6082536;23;20021;-71
2022/10/06 04:08:48;;;;;;;7.15;5.28;;;;;;;9.05;79.54;99572.16;6107780;23;20021;-70
2022/10/06 04:11:20;;;;;;;8.52;5.70;;;;;;;9.09;79.20;99571.84;6083264;23;20060;-70
2022/10/06 04:13:46;;;;;;;8.85;5.40;;;;;;;9.08;79.36;99578.13;6058549;23;20360;-71
2022/10/06 04:16:37;;;;;;;7.72;4.95;;;;;;;9.18;79.38;99573.03;6082891;23;20037;-70
2022/10/06 04:19:05;;;;;;;7.90;5.05;;;;;;;9.10;78.81;99578.88;6097681;23;20473;-71
2022/10/06 04:21:32;;;;;;;6.63;4.60;;;;;;;9.14;79.43;99581.34;6107469;23;20031;-69
2022/10/06 04:23:59;;;;;;;8.32;4.93;;;;;;;9.15;79.23;99583.88;6082999;23;20023;-68
2022/10/06 04:26:26;;;;;;;7.78;4.80;;;;;;;9.10;79.20;99580.69;6084635;23;20017;-67
2022/10/06 04:28:51;;;;;;;6.00;4.35;;;;;;;9.17;79.30;99581.13;6087536;23;20017;-68
2022/10/06 04:31:19;;;;;;;5.53;4.20;;;;;;;9.22;79.50;99589.66;6062085;23;20029;-70
2022/10/06 04:33:46;;;;;;;7.07;4.57;;;;;;;9.24;78.81;99599.25;6217766;22;20016;-69
2022/10/06 04:36:16;;;;;;;7.40;4.63;;;;;;;9.28;79.38;99592.75;6230968;22;20295;-69
2022/10/06 04:38:41;;;;;;;6.15;4.28;;;;;;;9.31;79.10;99587.22;6229806;22;20042;-69
2022/10/06 04:41:11;;;;;;;8.02;4.88;;;;;;;9.37;79.31;99594.78;6231452;22;20079;-67
2022/10/06 04:43:36;;;;;;;7.88;4.93;;;;;;;9.41;79.29;99598.97;6235701;22;20016;-68
2022/10/06 04:46:02;;;;;;;8.10;5.25;;;;;;;9.39;78.55;99597.34;6237400;22;20027;-69
2022/10/06 04:48:28;;;;;;;8.15;5.30;;;;;;;9.37;78.84;99601.91;6209215;22;20020;-70
2022/10/06 04:50:55;;;;;;;14.93;9.25;;;;;;;9.36;78.71;99594.91;6209495;22;20016;-70
2022/10/06 04:53:20;;;;;;;11.27;6.57;;;;;;;9.37;79.17;99593.94;6233122;22;20098;-70
2022/10/06 04:55:44;;;;;;;9.30;5.60;;;;;;;9.39;79.00;99592.03;6227989;22;20047;-68
2022/10/06 04:58:10;;;;;;;9.07;6.00;;;;;;;9.40;78.57;99594.59;6228441;22;20046;-68
2022/10/06 05:00:34;;;;;;;9.65;5.75;;;;;;;9.40;79.18;99599.06;6227970;22;20011;-69
2022/10/06 05:02:59;;;;;;;7.80;5.65;;;;;;;9.40;78.97;99602.56;6228523;22;20429;-68
2022/10/06 05:05:25;;;;;;;10.98;5.80;;;;;;;9.43;79.28;99606.84;6228196;22;20524;-68
2022/10/06 05:07:51;;;;;;;7.53;5.10;;;;;;;9.41;79.04;99600.75;6228088;22;20019;-69
2022/10/06 05:10:16;;;;;;;12.05;5.07;;;;;;;9.44;78.84;99611.22;6228132;22;20469;-68
2022/10/06 05:12:41;;;;;;;9.75;5.53;;;;;;;9.49;78.92;99603.75;6227625;22;20023;-69
2022/10/06 05:15:08;;;;;;;8.75;5.70;;;;;;;9.45;78.54;99608.44;6201963;22;20026;-68
2022/10/06 05:17:33;;;;;;;13.57;5.35;;;;;;;9.46;79.12;99611.97;6227870;22;20027;-68
2022/10/06 05:19:57;;;;;;;7.82;5.35;;;;;;;9.48;79.11;99602.91;6228103;22;20015;-69
2022/10/06 05:22:22;;;;;;;6.95;4.93;;;;;;;9.53;79.37;99607.06;6227617;22;20413;-69
2022/10/06 05:24:52;;;;;;;6.05;5.00;;;;;;;9.59;79.28;99609.31;6231046;22;20019;-69
2022/10/06 05:27:17;;;;;;;7.55;5.30;;;;;;;9.64;79.14;99602.72;6231199;22;20412;-69
2022/10/06 05:29:41;;;;;;;9.70;5.70;;;;;;;9.63;78.52;99595.69;6227913;22;20031;-68
2022/10/06 05:32:06;;;;;;;9.82;6.35;;;;;;;9.71;78.97;99598.66;6227720;22;20020;-69
2022/10/06 05:34:33;;;;;;;11.20;5.95;;;;;;;9.82;78.64;99603.25;6201580;22;20026;-70
2022/10/06 05:36:58;;;;;;;13.93;6.25;;;;;;;9.90;78.79;99608.94;6228476;22;20545;-69
2022/10/06 05:39:23;;;;;;;13.95;6.50;;;;;;;9.97;78.08;99604.00;6227555;22;20516;-69
2022/10/06 05:41:51;;;;;;;14.05;6.72;;;;;;;10.04;78.06;99611.50;6227866;22;20415;-70
2022/10/06 05:44:16;;;;;;;10.57;7.18;;;;;;;10.09;77.89;99613.81;6227860;22;20054;-70
2022/10/06 05:46:42;;;;;;;11.57;7.32;;;;;;;10.11;77.44;99609.25;6227619;22;20019;-69
2022/10/06 05:49:09;;;;;;;9.57;6.38;;;;;;;10.10;77.20;99608.38;6227668;22;20022;-69
2022/10/06 05:51:37;;;;;;;8.63;5.75;;;;;;;10.12;77.10;99616.28;6230141;22;20026;-70
2022/10/06 05:54:07;;;;;;;9.10;6.15;;;;;;;10.05;77.17;99609.66;6206377;22;20019;-69
2022/10/06 05:56:34;;;;;;;10.50;7.30;;;;;;;10.09;77.24;99609.34;6229951;22;20022;-69
2022/10/06 05:59:00;;;;;;;10.95;7.03;;;;;;;10.13;77.34;99615.31;6227824;22;20026;-70
2022/10/06 06:01:34;;;;;;;11.18;6.95;;;;;;;10.19;77.47;99613.09;6203168;22;20023;-70
2022/10/06 06:04:05;;;;;;;10.55;5.78;;;;;;;10.19;76.67;99622.91;6203000;22;20027;-70
2022/10/06 06:06:37;;;;;;;12.90;6.60;;;;;;;10.13;76.66;99615.31;6227929;22;20019;-69
2022/10/06 06:09:07;;;;;;;8.82;6.40;;;;;;;9.98;77.72;99619.03;6176987;22;20039;-69
2022/10/06 06:11:33;;;;;;;10.25;7.18;;;;;;;9.99;77.78;99618.09;6228323;22;20027;-70
2022/10/06 06:14:01;;;;;;;13.15;7.57;;;;;;;10.03;77.94;99609.78;6229178;22;20372;-68
2022/10/06 06:16:29;;;;;;;10.27;6.80;;;;;;;10.01;78.01;99603.72;6229944;22;20011;-68
2022/10/06 06:18:54;;;;;;;12.18;7.50;;;;;;;10.00;77.37;99612.66;6202902;22;20042;-68
2022/10/06 06:21:20;;;;;;;8.85;6.72;;;;;;;9.98;77.50;99617.22;6227564;22;20521;-69
2022/10/06 06:23:47;;;;;;;8.90;7.13;;;;;;;10.00;77.97;99617.13;6227243;22;20397;-68
2022/10/06 06:26:16;;;;;;;11.68;7.57;;;;;;;9.94;77.95;99623.72;6202089;22;20019;-68
2022/10/06 06:28:46;;;;;;;12.68;7.82;;;;;;;9.88;78.08;99620.63;6227006;22;20022;-68
2022/10/06 06:31:14;;;;;;;13.52;7.90;;;;;;;9.94;78.60;99614.88;6228537;22;20016;-67
2022/10/06 06:33:40;;;;;;;16.00;8.25;;;;;;;9.99;78.44;99618.09;6229484;22;20510;-66
2022/10/06 06:36:12;;;;;;;14.23;8.15;;;;;;;10.08;78.69;99620.09;6228328;22;20043;-69
2022/10/06 06:38:37;;;;;;;14.43;7.90;;;;;;;10.03;78.33;99624.91;6202386;22;20018;-68
2022/10/06 06:41:05;;;;;;;11.77;7.65;;;;;;;10.04;78.45;99624.81;6229069;22;20094;-68
2022/10/06 06:43:31;;;;;;;12.15;7.03;;;;;;;10.05;78.49;99618.50;6227443;22;20394;-68
2022/10/06 06:46:13;;;;;;;10.30;7.20;;;;;;;10.11;78.84;99617.22;6205543;22;20023;-69
2022/10/06 06:48:54;;;;;;;12.18;7.18;;;;;;;10.11;78.30;99623.41;6227487;22;20024;-69
2022/10/06 06:51:22;;;;;;;12.15;7.25;;;;;;;10.17;78.35;99622.97;6228174;22;20093;-68
2022/10/06 06:53:51;;;;;;;11.88;7.10;;;;;;;10.23;78.32;99619.06;6227719;22;20303;-69
2022/10/06 06:56:16;;;;;;;11.15;7.47;;;;;;;10.28;77.89;99618.72;6227671;22;20460;-70
2022/10/06 06:58:49;;;;;;;11.00;7.28;;;;;;;10.32;78.17;99626.41;6227818;22;20019;-68
2022/10/06 07:01:17;;;;;;;14.77;7.47;;;;;;;10.43;78.21;99612.31;6227370;22;20015;-69
2022/10/06 07:03:44;;;;;;;11.95;6.85;;;;;;;10.61;78.20;99610.16;6227918;22;20015;-67
2022/10/06 07:06:13;;;;;;;8.57;6.38;;;;;;;10.78;77.24;99609.78;6177499;22;20347;-67
2022/10/06 07:08:44;;;;;;;11.65;6.68;;;;;;;10.89;76.52;99612.50;6228558;22;20087;-68
2022/10/06 07:11:18;;;;;;;10.07;5.65;;;;;;;11.02;76.72;99613.31;6202196;22;20027;-67
2022/10/06 07:13:44;;;;;;;7.93;5.72;;;;;;;10.99;75.98;99645.56;6228396;22;20522;-67
2022/10/06 07:27:09;;;;;;;11.27;5.65;;;;;;;11.09;75.07;99619.91;6229130;22;20395;-67
2022/10/06 07:29:34;;;;;;;9.82;6.20;;;;;;;10.96;75.16;99616.41;6228772;22;20406;-69
2022/10/06 07:31:59;;;;;;;9.93;5.80;;;;;;;10.96;76.15;99618.25;6226702;22;20081;-68
2022/10/06 07:34:24;;;;;;;9.85;5.45;;;;;;;10.91;75.41;99611.44;6229034;22;20355;-68
2022/10/06 07:36:52;;;;;;;8.85;5.43;;;;;;;10.98;75.05;99609.16;6227309;22;20105;-68
2022/10/06 07:39:19;;;;;;;9.23;6.13;;;;;;;10.94;75.68;99618.38;6227912;22;20087;-70
2022/10/06 07:41:44;;;;;;;8.30;5.10;;;;;;;10.98;75.68;99605.66;6229119;22;20054;-70
2022/10/06 07:44:08;;;;;;;11.18;5.78;;;;;;;11.00;76.15;99603.72;6228929;22;20016;-69
2022/10/06 07:46:34;;;;;;;10.18;6.88;;;;;;;11.00;76.04;99609.06;6228975;22;20639;-68
2022/10/06 07:49:22;;;;;;;7.95;5.47;;;;;;;11.05;75.53;99602.44;6230329;22;20398;-70
2022/10/06 07:51:46;;;;;;;8.15;4.80;;;;;;;11.07;75.40;99602.28;6229189;22;20362;-70
2022/10/06 07:54:11;;;;;;;7.28;5.18;;;;;;;11.10;75.48;99597.59;6203812;22;20062;-70
2022/10/06 07:56:54;;;;;;;9.20;5.55;;;;;;;11.11;74.88;99599.28;6228826;22;20451;-69
2022/10/06 07:59:20;;;;;;;9.10;6.00;;;;;;;11.18;75.45;99605.00;6229377;22;20008;-70
2022/10/06 08:01:44;;;;;;;11.73;5.50;;;;;;;11.22;75.70;99591.34;6230553;22;20407;-69
2022/10/06 08:04:09;;;;;;;7.55;5.68;;;;;;;11.23;74.81;99603.72;6230531;22;20474;-68
2022/10/06 08:06:34;;;;;;;7.78;5.63;;;;;;;11.34;75.16;99591.38;6230190;22;20068;-69
2022/10/06 08:08:59;;;;;;;6.43;5.55;;;;;;;11.23;74.79;99590.38;6231099;22;20390;-69
2022/10/06 08:11:24;;;;;;;8.00;6.43;;;;;;;11.21;74.81;99594.97;6230787;22;20355;-69
2022/10/06 08:13:50;;;;;;;8.00;6.25;;;;;;;11.19;75.19;99585.38;6230751;22;20015;-69
2022/10/06 08:16:18;;;;;;;7.97;5.82;;;;;;;11.22;75.77;99588.66;6228679;22;20099;-68
2022/10/06 08:18:52;;;;;;;8.25;6.25;;;;;;;11.26;75.28;99595.50;6230052;22;20047;-69
2022/10/06 08:21:19;;;;;;;8.52;6.15;;;;;;;11.27;75.17;99599.88;6230252;22;20025;-69
2022/10/06 08:23:46;;;;;;;7.97;5.97;;;;;;;11.30;75.67;99593.41;6228313;22;20023;-70
2022/10/06 08:26:12;;;;;;;8.13;5.88;;;;;;;11.35;75.45;99591.28;6230167;22;20045;-68
2022/10/06 08:28:37;;;;;;;9.35;6.03;;;;;;;11.42;75.46;99588.97;6230300;22;20019;-69
2022/10/06 08:31:10;;;;;;;8.18;6.07;;;;;;;11.44;75.06;99590.56;6230611;22;20020;-68
2022/10/06 08:33:37;;;;;;;11.20;7.07;;;;;;;11.58;74.69;99584.19;6230903;22;20420;-68
2022/10/06 08:36:04;;;;;;;8.05;6.88;;;;;;;11.59;74.29;99588.56;6230562;22;20046;-68
2022/10/06 08:38:31;;;;;;;7.88;6.00;;;;;;;11.54;74.68;99591.56;6228871;22;20069;-67
2022/10/06 08:40:56;;;;;;;8.48;5.72;;;;;;;11.46;74.39;99593.97;6230654;22;20351;-67
2022/10/06 08:43:23;;;;;;;6.93;5.38;;;;;;;11.39;75.01;99587.41;6230419;22;20039;-67
2022/10/06 08:45:49;;;;;;;10.30;6.15;;;;;;;11.36;75.67;99602.81;6228993;22;20020;-70
2022/10/06 08:48:19;;;;;;;7.85;5.38;;;;;;;11.40;75.98;99604.28;6231728;22;20031;-68
2022/10/06 08:51:06;;;;;;;7.93;5.30;;;;;;;11.41;75.54;99606.81;6231092;22;20403;-68
2022/10/06 08:53:45;;;;;;;8.23;5.13;;;;;;;11.43;75.74;99601.34;6231690;22;20024;-68
2022/10/06 08:56:17;;;;;;;6.65;5.22;;;;;;;11.36;75.55;99608.13;6231951;22;20462;-68
2022/10/06 08:58:57;;;;;;;9.18;5.38;;;;;;;11.39;75.86;99607.91;6229115;22;20011;-67
2022/10/06 09:01:25;;;;;;;10.20;5.53;;;;;;;11.28;75.59;99617.59;6232703;22;20823;-67
2022/10/06 09:03:53;;;;;;;18.08;6.65;;;;;;;11.28;75.87;99598.91;6232451;22;20073;-68
2022/10/06 09:06:36;;;;;;;10.27;5.93;;;;;;;11.33;76.25;99611.88;6230054;22;20069;-70
2022/10/06 09:09:11;;;;;;;9.82;6.57;;;;;;;11.41;75.49;99611.28;6230257;22;20104;-69
2022/10/06 09:11:55;;;;;;;9.95;6.38;;;;;;;11.43;75.40;99618.22;6230105;22;20015;-69
2022/10/06 09:14:32;;;;;;;9.27;6.20;;;;;;;11.39;76.76;99613.25;6229349;22;20340;-69
2022/10/06 09:17:02;;;;;;;8.68;5.75;;;;;;;11.38;75.71;99617.75;6233573;22;20019;-68
2022/10/06 09:19:42;;;;;;;11.55;6.93;;;;;;;11.34;75.66;99616.25;6227417;22;20023;-69
2022/10/06 09:22:15;;;;;;;10.85;6.70;;;;;;;11.26;76.04;99610.66;6227793;22;20019;-70
2022/10/06 09:24:41;;;;;;;8.57;6.03;;;;;;;11.21;75.85;99608.31;6240429;22;20076;-68
2022/10/06 09:27:18;;;;;;;10.50;6.60;;;;;;;11.23;76.77;99613.53;6230297;22;20042;-68
2022/10/06 09:29:44;;;;;;;8.15;5.60;;;;;;;11.25;76.68;99601.78;6228363;22;20565;-68
2022/10/06 09:32:09;;;;;;;10.23;5.78;;;;;;;11.27;76.26;99607.03;6229989;22;20020;-68
2022/10/06 09:34:39;;;;;;;11.15;6.05;;;;;;;11.31;76.34;99603.13;6230225;22;20054;-67
2022/10/06 09:37:08;;;;;;;15.45;6.53;;;;;;;11.39;77.27;99605.25;6231770;22;20019;-68
2022/10/06 09:39:39;;;;;;;9.55;6.35;;;;;;;11.42;76.45;99605.84;6234853;22;20016;-67
2022/10/06 09:42:05;;;;;;;9.93;6.43;;;;;;;11.45;76.29;99600.28;6233760;22;20088;-67
2022/10/06 09:44:50;;;;;;;8.13;5.88;;;;;;;11.54;76.38;99601.41;6232320;22;20055;-67
2022/10/06 09:47:22;;;;;;;10.00;6.45;;;;;;;11.58;76.04;99597.53;6233317;22;20102;-67
2022/10/06 09:50:13;;;;;;;8.05;5.80;;;;;;;11.71;75.62;99597.44;6230006;22;20392;-67
2022/10/06 09:52:39;;;;;;;7.80;5.78;;;;;;;11.70;75.71;99595.75;6229343;22;20023;-67
2022/10/06 09:55:12;;;;;;;11.55;6.88;;;;;;;11.78;75.74;99588.03;6228012;22;20019;-68
2022/10/06 09:57:38;;;;;;;9.80;6.82;;;;;;;11.76;75.80;99588.13;6228289;22;20015;-66
2022/10/06 10:00:25;;;;;;;11.73;6.38;;;;;;;11.71;75.70;99584.09;6229600;22;20029;-67
2022/10/06 10:03:13;;;;;;;9.35;6.60;;;;;;;11.90;75.10;99585.25;6229139;22;20019;-66
2022/10/06 10:05:44;;;;;;;9.63;6.82;;;;;;;12.10;74.64;99585.50;6229615;22;20058;-69
2022/10/06 10:08:12;;;;;;;8.93;6.15;;;;;;;12.35;74.08;99578.09;6229576;22;20535;-69
2022/10/06 10:10:36;;;;;;;8.23;5.45;;;;;;;12.60;73.39;99576.13;6229370;22;20015;-68
2022/10/06 10:13:06;;;;;;;7.70;5.38;;;;;;;12.94;72.49;99575.09;6229229;22;20026;-68
2022/10/06 10:15:39;;;;;;;9.68;5.78;;;;;;;13.02;71.69;99577.97;6202235;22;20026;-69
2022/10/06 10:18:11;;;;;;;7.40;5.55;;;;;;;13.25;71.52;99584.13;6229545;22;20391;-69
2022/10/06 10:20:39;;;;;;;8.98;6.00;;;;;;;13.45;70.09;99580.63;6229355;22;20343;-68
2022/10/06 10:23:22;;;;;;;7.70;5.95;;;;;;;13.76;69.65;99572.69;6227643;22;20024;-70
2022/10/06 10:25:57;;;;;;;8.02;5.90;;;;;;;13.92;68.53;99573.03;6238228;22;20019;-70
2022/10/06 10:28:21;;;;;;;8.35;6.30;;;;;;;14.24;67.65;99578.28;6240196;22;20358;-71
2022/10/06 10:31:03;;;;;;;7.95;5.40;;;;;;;14.56;66.86;99575.47;6239506;22;20094;-70
2022/10/06 10:33:52;;;;;;;9.85;5.57;;;;;;;14.88;66.33;99576.13;6229553;22;20040;-71
2022/10/06 10:36:21;;;;;;;10.98;5.88;;;;;;;14.86;64.53;99580.78;6227588;22;20050;-71
2022/10/06 10:38:47;;;;;;;9.77;6.60;;;;;;;14.69;65.10;99578.75;6229541;22;20020;-72
2022/10/06 10:41:15;;;;;;;9.25;6.25;;;;;;;14.35;65.67;99590.75;6228116;22;20512;-75
2022/10/06 10:43:39;;;;;;;10.88;6.55;;;;;;;13.89;65.96;99586.69;6229522;22;20024;-73
2022/10/06 10:46:16;;;;;;;10.15;6.15;;;;;;;13.89;67.04;99593.88;6229861;22;20876;-74
2022/10/06 10:48:55;;;;;;;9.43;6.15;;;;;;;13.70;67.69;99583.91;6230231;22;20097;-72
2022/10/06 10:51:35;;;;;;;9.05;6.30;;;;;;;13.49;68.08;99588.41;6231621;22;20020;-74
2022/10/06 10:54:29;;;;;;;7.78;6.00;;;;;;;13.41;68.90;99595.28;6242669;22;20075;-73
2022/10/06 10:56:54;;;;;;;10.77;7.40;;;;;;;13.23;69.27;99586.09;6120652;23;20064;-72
2022/10/06 10:59:38;;;;;;;9.13;6.82;;;;;;;13.33;69.49;99591.50;6115448;23;20017;-73
2022/10/06 11:02:15;;;;;;;10.23;6.75;;;;;;;13.26;69.32;99593.88;6089250;23;20021;-72
2022/10/06 11:04:46;;;;;;;12.38;7.88;;;;;;;13.14;69.63;99586.84;6112199;23;20018;-73
2022/10/06 11:07:29;;;;;;;10.45;6.88;;;;;;;13.04;69.42;99584.06;6110924;23;20025;-74
2022/10/06 11:10:10;;;;;;;11.13;6.50;;;;;;;13.06;69.93;99586.63;6063534;23;20495;-74
2022/10/06 11:12:47;;;;;;;10.70;7.25;;;;;;;12.86;70.01;99585.59;6112089;23;20017;-76
2022/10/06 11:15:36;;;;;;;10.95;7.55;;;;;;;12.90;71.00;99588.84;6084629;23;20017;-76
2022/10/06 11:18:21;;;;;;;9.85;7.07;;;;;;;12.91;70.85;99585.19;6084349;23;20021;-74
2022/10/06 11:20:54;;;;;;;11.68;7.13;;;;;;;12.95;71.43;99594.69;6109718;23;20067;-74
2022/10/06 11:23:46;;;;;;;20.42;7.78;;;;;;;13.05;71.49;99588.44;6083894;23;20025;-73
2022/10/06 11:26:35;;;;;;;9.73;7.32;;;;;;;13.16;71.36;99590.25;6108436;23;20028;-73
2022/10/06 11:29:26;;;;;;;10.27;6.60;;;;;;;13.20;70.93;99594.38;6118310;23;20017;-73
2022/10/06 11:32:11;;;;;;;12.63;7.55;;;;;;;13.16;70.38;99586.72;6094620;23;20021;-73
2022/10/06 11:34:35;;;;;;;11.52;7.72;;;;;;;13.03;70.64;99594.88;6216235;22;20026;-73
2022/10/06 11:37:16;;;;;;;18.10;8.32;;;;;;;13.01;70.99;99596.84;6231379;22;20023;-71
2022/10/06 11:39:52;;;;;;;11.23;7.35;;;;;;;12.85;71.91;99585.69;6231372;22;20380;-74
2022/10/06 11:42:42;;;;;;;14.20;8.43;;;;;;;12.78;72.41;99585.34;6229859;22;20050;-73
2022/10/06 11:45:13;;;;;;;11.18;7.35;;;;;;;12.77;72.95;99583.63;6230612;22;20015;-71
2022/10/06 11:48:09;;;;;;;11.90;7.95;;;;;;;12.80;72.60;99585.22;6231823;22;20011;-75
2022/10/06 11:50:41;;;;;;;14.55;7.55;;;;;;;12.85;72.59;99572.31;6234844;22;20427;-78
2022/10/06 11:53:27;;;;;;;13.43;7.60;;;;;;;13.01;72.05;99576.28;6232843;22;20439;-71
2022/10/06 11:56:16;;;;;;;10.48;7.85;;;;;;;13.07;72.26;99575.78;6233396;22;20111;-71